Time;durP1;ratioP1;P1;durP2;ratioP2;P2;SDS_P1;SDS_P2;PMS_P1;PMS_P2;Temp;Humidity;BMP_temperature;BMP_pressure;BME280_temperature;BME280_humidity;BME280_pressure;Samples;Min_cycle;Max_cycle;Signal;HPM_P1;HPM_P2
2023/01/21 00:02:54;;;;;;;48.83;16.53;;;;;;;-3.58;100.00;96967.28;10455614;28;20188;-74
2023/01/21 00:07:55;;;;;;;57.97;19.20;;;;;;;-3.67;100.00;96959.97;10454635;28;20704;-73
2023/01/21 00:12:55;;;;;;;47.77;16.30;;;;;;;-3.69;100.00;96971.16;10455064;28;20827;-74
2023/01/21 00:17:56;;;;;;;47.17;16.73;;;;;;;-3.61;100.00;96962.28;10454944;28;20664;-74
2023/01/21 00:22:56;;;;;;;46.13;17.03;;;;;;;-3.67;100.00;96964.28;10453105;28;20682;-74
2023/01/21 00:27:58;;;;;;;54.67;17.03;;;;;;;-3.77;100.00;96967.22;10454448;28;20282;-74
2023/01/21 00:32:59;;;;;;;48.23;16.50;;;;;;;-3.71;100.00;96966.09;10452943;28;20199;-74
2023/01/21 00:37:59;;;;;;;48.17;17.73;;;;;;;-3.67;100.00;96967.66;10453472;28;20974;-74
2023/01/21 00:42:59;;;;;;;45.87;17.27;;;;;;;-3.73;100.00;96962.78;10453886;28;20686;-74
2023/01/21 00:48:00;;;;;;;48.03;16.83;;;;;;;-3.78;100.00;96983.44;10453414;28;20966;-74
2023/01/21 00:53:00;;;;;;;50.60;16.00;;;;;;;-3.74;100.00;96984.16;10451917;28;20706;-74
2023/01/21 00:58:00;;;;;;;47.23;16.03;;;;;;;-3.69;100.00;96978.84;10452774;28;20196;-73
2023/01/21 01:03:01;;;;;;;57.23;17.83;;;;;;;-3.75;100.00;96979.94;10452198;28;20199;-74
2023/01/21 01:08:02;;;;;;;67.90;18.90;;;;;;;-3.81;100.00;96991.25;10451251;28;20281;-73
2023/01/21 01:13:02;;;;;;;83.33;18.67;;;;;;;-3.85;100.00;96994.81;10452130;28;20204;-74
2023/01/21 01:18:02;;;;;;;96.07;17.83;;;;;;;-3.86;100.00;96998.28;10452164;28;20257;-74
2023/01/21 01:23:04;;;;;;;67.43;18.37;;;;;;;-3.86;100.00;96987.19;10467351;28;20187;-75
2023/01/21 01:28:04;;;;;;;69.17;17.80;;;;;;;-3.92;100.00;96990.00;10450306;28;20211;-75
2023/01/21 01:33:05;;;;;;;58.43;17.77;;;;;;;-3.97;100.00;96991.00;10451775;28;20195;-74
2023/01/21 01:38:08;;;;;;;57.03;17.67;;;;;;;-3.95;100.00;97002.03;10450605;28;20700;-75
2023/01/21 01:43:50;;;;;;;58.63;19.33;;;;;;;-4.07;100.00;97006.78;10449933;28;20859;-76
2023/01/21 01:49:03;;;;;;;57.10;16.43;;;;;;;-3.97;100.00;97003.81;10450833;28;20253;-74
2023/01/21 01:54:04;;;;;;;47.80;17.47;;;;;;;-3.95;100.00;97011.44;10451014;28;20253;-74
2023/01/21 01:59:06;;;;;;;43.00;15.77;;;;;;;-4.02;100.00;97017.69;10448682;28;20188;-75
2023/01/21 02:04:08;;;;;;;51.50;16.53;;;;;;;-4.07;100.00;97030.66;10449620;28;20220;-74
2023/01/21 02:09:09;;;;;;;70.60;17.20;;;;;;;-4.11;100.00;97021.44;10448783;28;20191;-74
2023/01/21 02:14:10;;;;;;;56.80;15.87;;;;;;;-4.13;100.00;97029.16;10450610;28;20180;-75
2023/01/21 02:19:36;;;;;;;75.17;15.67;;;;;;;-4.08;100.00;97046.91;10449123;28;20255;-75
2023/01/21 02:25:00;;;;;;;75.43;16.50;;;;;;;-4.09;100.00;97055.44;10449082;28;20310;-75
2023/01/21 02:30:16;;;;;;;63.77;15.40;;;;;;;-4.14;100.00;97047.94;10449986;28;20341;-75
2023/01/21 02:35:26;;;;;;;94.10;17.63;;;;;;;-4.23;100.00;97055.16;10449359;28;20189;-75
2023/01/21 02:40:51;;;;;;;141.70;18.07;;;;;;;-4.23;100.00;97050.03;10447275;28;20762;-75
2023/01/21 02:45:58;;;;;;;90.50;16.27;;;;;;;-4.17;100.00;97060.03;10448895;28;20711;-73
2023/01/21 02:50:59;;;;;;;127.37;16.73;;;;;;;-4.18;100.00;97061.78;10447464;28;20218;-75
2023/01/21 02:56:11;;;;;;;56.10;16.60;;;;;;;-4.13;100.00;97066.72;10448237;28;20276;-75
2023/01/21 03:01:29;;;;;;;63.50;17.93;;;;;;;-4.15;100.00;97071.88;10447811;28;20573;-75
2023/01/21 03:07:00;;;;;;;67.13;18.37;;;;;;;-4.13;100.00;97071.81;10448821;28;20223;-74
2023/01/21 03:12:08;;;;;;;84.20;19.93;;;;;;;-4.09;100.00;97072.53;10440797;28;20264;-74
2023/01/21 03:17:35;;;;;;;141.83;19.27;;;;;;;-4.05;100.00;97069.81;10454616;28;20643;-74
2023/01/21 03:22:36;;;;;;;127.47;18.37;;;;;;;-4.06;100.00;97072.41;10455117;28;20211;-74
2023/01/21 03:27:38;;;;;;;285.83;24.97;;;;;;;-4.21;100.00;97071.25;10455167;28;20289;-75
2023/01/21 03:32:40;;;;;;;185.63;19.93;;;;;;;-4.27;100.00;97081.72;10454711;28;20283;-74
2023/01/21 03:38:12;;;;;;;191.73;23.70;;;;;;;-4.23;100.00;97085.84;10454384;28;20258;-75
2023/01/21 03:43:12;;;;;;;176.00;19.00;;;;;;;-4.32;100.00;97092.97;10446815;28;20208;-75
2023/01/21 03:48:19;;;;;;;81.07;16.67;;;;;;;-4.36;100.00;97096.53;10455381;28;20683;-74
2023/01/21 03:53:20;;;;;;;128.80;17.70;;;;;;;-4.37;100.00;97099.13;10454149;28;20207;-74
2023/01/21 03:58:21;;;;;;;95.20;16.87;;;;;;;-4.39;100.00;97096.63;10454750;28;20192;-74
2023/01/21 04:03:21;;;;;;;64.57;16.10;;;;;;;-4.28;100.00;97103.09;10452830;28;20652;-73
2023/01/21 04:08:21;;;;;;;112.63;17.87;;;;;;;-4.36;100.00;97114.41;10451007;28;20203;-74
2023/01/21 04:13:22;;;;;;;112.37;15.47;;;;;;;-4.38;100.00;97112.78;10465765;28;20188;-75
2023/01/21 04:18:22;;;;;;;51.77;12.00;;;;;;;-4.32;100.00;97112.56;10449556;28;20549;-74
2023/01/21 04:23:22;;;;;;;76.10;15.27;;;;;;;-4.44;100.00;97108.75;10450871;28;20557;-74
2023/01/21 04:28:23;;;;;;;47.13;13.40;;;;;;;-4.39;100.00;97111.97;10450683;28;20199;-75
2023/01/21 04:33:23;;;;;;;72.77;13.03;;;;;;;-4.44;100.00;97121.53;10450516;28;20196;-74
2023/01/21 04:38:23;;;;;;;37.87;13.00;;;;;;;-4.46;100.00;97118.19;10449903;28;20239;-74
2023/01/21 04:43:24;;;;;;;31.90;11.57;;;;;;;-4.41;100.00;97123.13;10450140;28;20990;-74
2023/01/21 04:48:24;;;;;;;29.87;10.27;;;;;;;-4.42;100.00;97118.94;10449807;28;20699;-74
2023/01/21 04:53:24;;;;;;;28.67;11.23;;;;;;;-4.40;100.00;97117.97;10450592;28;20656;-74
2023/01/21 04:58:26;;;;;;;40.57;12.33;;;;;;;-4.46;100.00;97118.19;10448908;28;20757;-74
2023/01/21 05:03:26;;;;;;;28.90;11.27;;;;;;;-4.36;100.00;97126.38;10450512;28;20196;-74
2023/01/21 05:08:27;;;;;;;43.47;13.00;;;;;;;-4.35;100.00;97133.16;10452362;28;20188;-73
2023/01/21 05:13:27;;;;;;;41.23;14.47;;;;;;;-4.39;100.00;97140.09;10452630;28;20184;-75
2023/01/21 05:18:27;;;;;;;38.77;13.33;;;;;;;-4.51;100.00;97150.75;10452710;28;20198;-74
2023/01/21 05:23:28;;;;;;;39.33;13.90;;;;;;;-4.49;100.00;97147.28;10452331;28;20232;-74
2023/01/21 05:28:28;;;;;;;45.13;12.53;;;;;;;-4.46;100.00;97148.88;10451838;28;20199;-73
2023/01/21 05:33:30;;;;;;;30.40;12.70;;;;;;;-4.27;100.00;97151.63;10452012;28;20195;-74
2023/01/21 05:38:31;;;;;;;31.00;11.53;;;;;;;-4.20;100.00;97158.19;10451074;28;20240;-74
2023/01/21 05:43:31;;;;;;;34.40;11.87;;;;;;;-4.39;100.00;97147.78;10450194;28;20713;-75
2023/01/21 05:48:32;;;;;;;25.23;11.43;;;;;;;-4.44;100.00;97139.44;10451687;28;20187;-75
2023/01/21 05:53:32;;;;;;;21.67;9.73;;;;;;;-4.48;100.00;97135.31;10451623;28;20192;-74
2023/01/21 05:58:32;;;;;;;27.57;10.67;;;;;;;-4.43;100.00;97141.09;10450986;28;20196;-74
2023/01/21 06:03:34;;;;;;;29.03;11.30;;;;;;;-4.56;100.00;97144.97;10451156;28;20199;-74
2023/01/21 06:08:34;;;;;;;27.87;11.50;;;;;;;-4.47;100.00;97147.22;10450750;28;20202;-74
2023/01/21 06:13:35;;;;;;;88.93;16.13;;;;;;;-4.55;100.00;97144.94;10450638;28;20196;-74
2023/01/21 06:18:35;;;;;;;32.87;13.23;;;;;;;-4.53;100.00;97145.69;10450969;28;20515;-74
2023/01/21 06:23:35;;;;;;;36.83;13.33;;;;;;;-4.53;100.00;97147.44;10466347;28;20547;-74
2023/01/21 06:28:36;;;;;;;37.63;13.57;;;;;;;-4.64;100.00;97152.88;10450166;28;20246;-74
2023/01/21 06:33:36;;;;;;;36.57;14.13;;;;;;;-4.64;100.00;97149.50;10450955;28;20282;-75
2023/01/21 06:38:36;;;;;;;44.37;14.67;;;;;;;-4.59;100.00;97152.75;10449617;28;20312;-74
2023/01/21 06:43:37;;;;;;;39.47;14.93;;;;;;;-4.57;100.00;97148.41;10450304;28;20188;-74
2023/01/21 06:48:37;;;;;;;39.83;13.27;;;;;;;-4.68;100.00;97157.28;10451689;28;20191;-74
2023/01/21 06:53:37;;;;;;;35.97;13.70;;;;;;;-4.69;100.00;97147.09;10457984;28;20183;-74
2023/01/21 06:58:38;;;;;;;36.53;12.43;;;;;;;-4.62;100.00;97152.81;10457851;28;20203;-75
2023/01/21 07:03:38;;;;;;;30.97;12.30;;;;;;;-4.59;100.00;97155.31;10457897;28;20196;-74
2023/01/21 07:08:38;;;;;;;23.00;10.13;;;;;;;-4.60;100.00;97153.63;10457288;28;20196;-74
2023/01/21 07:13:39;;;;;;;36.30;12.50;;;;;;;-4.66;100.00;97144.44;10457367;28;20746;-74
2023/01/21 07:18:39;;;;;;;33.83;12.13;;;;;;;-4.65;100.00;97153.78;10457470;28;20717;-74
2023/01/21 07:23:40;;;;;;;33.63;12.13;;;;;;;-4.58;100.00;97149.28;10457018;28;20530;-75
2023/01/21 07:28:40;;;;;;;39.70;13.20;;;;;;;-4.61;100.00;97146.84;10456877;28;20610;-74
2023/01/21 07:33:40;;;;;;;39.37;14.83;;;;;;;-4.57;100.00;97140.75;10457023;28;20299;-75
2023/01/21 07:38:41;;;;;;;50.23;17.27;;;;;;;-4.58;100.00;97151.84;10455854;28;20253;-74
2023/01/21 07:43:41;;;;;;;38.13;14.63;;;;;;;-4.63;100.00;97158.84;10456165;28;20373;-75
2023/01/21 07:48:42;;;;;;;49.40;17.30;;;;;;;-4.66;100.00;97155.50;10456286;28;20287;-75
2023/01/21 07:53:42;;;;;;;45.40;16.03;;;;;;;-4.56;100.00;97165.44;10455516;28;20199;-75
2023/01/21 07:58:43;;;;;;;58.90;18.97;;;;;;;-4.62;100.00;97168.16;10455565;28;20192;-74
2023/01/21 08:03:43;;;;;;;51.13;18.73;;;;;;;-4.58;100.00;97159.50;10455367;28;20703;-74
2023/01/21 08:08:43;;;;;;;39.57;15.97;;;;;;;-4.56;100.00;97161.13;10455214;28;20275;-74
2023/01/21 08:13:44;;;;;;;59.83;17.80;;;;;;;-4.60;100.00;97159.56;10453936;28;20188;-74
2023/01/21 08:18:44;;;;;;;47.23;16.83;;;;;;;-4.56;100.00;97168.00;10454578;28;20207;-74
2023/01/21 08:23:44;;;;;;;51.67;17.20;;;;;;;-4.51;100.00;97169.47;10454607;28;20676;-74
2023/01/21 08:28:45;;;;;;;41.13;15.33;;;;;;;-4.38;100.00;97175.03;10454405;28;20687;-74
2023/01/21 08:33:45;;;;;;;53.87;17.50;;;;;;;-4.35;100.00;97179.19;10454265;28;20644;-75
2023/01/21 08:38:45;;;;;;;56.10;17.03;;;;;;;-4.40;100.00;97179.34;10452521;28;20706;-75
2023/01/21 08:43:46;;;;;;;50.37;16.63;;;;;;;-4.43;100.00;97171.78;10453545;28;20227;-75
2023/01/21 08:48:46;;;;;;;64.53;16.53;;;;;;;-4.26;100.00;97175.47;10453450;28;20191;-75
2023/01/21 08:53:48;;;;;;;55.50;16.87;;;;;;;-4.31;100.00;97181.56;10452219;28;20187;-74
2023/01/21 08:58:53;;;;;;;41.67;15.93;;;;;;;-4.17;100.00;97168.28;10453213;28;20196;-75
2023/01/21 09:03:58;;;;;;;44.77;17.37;;;;;;;-4.24;100.00;97176.25;10452768;28;20256;-75
2023/01/21 09:08:59;;;;;;;53.20;18.67;;;;;;;-4.16;100.00;97176.81;10452763;28;20192;-74
2023/01/21 09:14:02;;;;;;;52.53;16.93;;;;;;;-3.99;100.00;97184.72;10451807;28;20179;-74
2023/01/21 09:19:02;;;;;;;68.87;17.97;;;;;;;-4.10;100.00;97189.41;10452180;28;20203;-75
2023/01/21 09:24:03;;;;;;;52.37;19.27;;;;;;;-3.92;100.00;97198.16;10452222;28;20230;-75
2023/01/21 09:29:03;;;;;;;54.47;20.33;;;;;;;-3.74;100.00;97190.69;10451884;28;20188;-75
2023/01/21 09:34:04;;;;;;;48.57;20.63;;;;;;;-3.86;100.00;97192.81;10450781;28;20230;-75
2023/01/21 09:39:05;;;;;;;49.40;18.77;;;;;;;-3.82;100.00;97193.53;10450230;28;20758;-75
2023/01/21 09:44:27;;;;;;;54.97;19.97;;;;;;;-3.78;100.00;97185.69;10451821;28;20703;-75
2023/01/21 09:49:30;;;;;;;58.87;21.33;;;;;;;-3.80;100.00;97191.72;10450290;28;20278;-75
2023/01/21 09:54:32;;;;;;;52.63;21.10;;;;;;;-3.70;100.00;97187.94;10450199;28;20220;-75
2023/01/21 09:59:51;;;;;;;45.37;18.30;;;;;;;-3.84;100.00;97172.28;10450830;28;20275;-74
2023/01/21 10:05:13;;;;;;;47.07;18.17;;;;;;;-3.71;100.00;97178.59;10449255;28;20220;-74
2023/01/21 10:10:21;;;;;;;48.67;20.90;;;;;;;-3.59;100.00;97170.44;10449813;28;20184;-74
2023/01/21 10:15:40;;;;;;;59.17;23.13;;;;;;;-3.65;100.00;97170.69;10449582;28;20211;-74
2023/01/21 10:20:53;;;;;;;48.83;20.60;;;;;;;-3.70;100.00;97170.03;10450632;28;20665;-75
2023/01/21 10:25:54;;;;;;;41.83;18.27;;;;;;;-3.51;100.00;97170.16;10456456;28;20720;-75
2023/01/21 10:31:19;;;;;;;58.77;23.43;;;;;;;-3.46;100.00;97164.84;10457936;28;20633;-75
2023/01/21 10:36:43;;;;;;;53.77;22.37;;;;;;;-3.54;100.00;97156.66;10458504;28;20196;-75
2023/01/21 10:42:04;;;;;;;47.60;18.73;;;;;;;-3.45;100.00;97152.00;10458471;28;20231;-75
2023/01/21 10:47:15;;;;;;;40.87;17.47;;;;;;;-3.30;100.00;97142.88;10457986;28;20231;-74
2023/01/21 10:52:20;;;;;;;42.90;19.20;;;;;;;-3.45;100.00;97148.59;10458195;28;20196;-74
2023/01/21 10:57:28;;;;;;;48.70;19.63;;;;;;;-3.47;100.00;97145.28;10458092;28;20246;-74
2023/01/21 11:02:31;;;;;;;40.87;19.07;;;;;;;-3.27;100.00;97135.06;10457931;28;20196;-75
2023/01/21 11:07:35;;;;;;;37.07;16.60;;;;;;;-3.28;100.00;97127.44;10457343;28;20680;-74
2023/01/21 11:12:35;;;;;;;37.83;16.33;;;;;;;-3.20;100.00;97128.00;10456400;28;20216;-75
2023/01/21 11:17:38;;;;;;;37.73;17.47;;;;;;;-3.19;100.00;97123.69;10455617;28;20183;-75
2023/01/21 11:22:42;;;;;;;33.37;16.20;;;;;;;-3.17;100.00;97116.78;10457101;28;20281;-74
2023/01/21 11:27:42;;;;;;;32.43;16.60;;;;;;;-3.14;100.00;97102.13;10455307;28;20231;-75
2023/01/21 11:32:43;;;;;;;29.50;15.30;;;;;;;-3.09;100.00;97107.06;10456630;28;20215;-75
2023/01/21 11:37:43;;;;;;;35.43;15.43;;;;;;;-3.19;100.00;97106.59;10437168;28;20216;-74
2023/01/21 11:42:51;;;;;;;28.70;15.77;;;;;;;-3.01;100.00;97096.50;10456375;28;20195;-75
2023/01/21 11:47:52;;;;;;;33.10;15.73;;;;;;;-3.03;100.00;97081.19;10454870;28;20232;-74
2023/01/21 11:53:05;;;;;;;32.07;16.30;;;;;;;-3.11;100.00;97067.84;10456979;28;20199;-75
2023/01/21 11:58:16;;;;;;;27.80;13.97;;;;;;;-3.07;100.00;97061.69;10455693;28;20200;-75
2023/01/21 12:03:19;;;;;;;31.70;15.03;;;;;;;-3.07;100.00;97064.25;10454196;28;20192;-74
2023/01/21 12:08:23;;;;;;;33.37;15.93;;;;;;;-2.93;100.00;97066.25;10453876;28;20315;-73
2023/01/21 12:13:56;;;;;;;29.37;15.10;;;;;;;-3.03;100.00;97055.56;10453394;28;20196;-73
2023/01/21 12:19:15;;;;;;;35.77;15.03;;;;;;;-3.02;100.00;97046.13;10437341;28;20249;-73
2023/01/21 12:24:38;;;;;;;25.93;14.23;;;;;;;-2.98;100.00;97061.31;10453639;28;20307;-73
2023/01/21 12:29:47;;;;;;;27.23;14.63;;;;;;;-3.03;100.00;97050.44;10452925;28;20192;-74
2023/01/21 12:35:07;;;;;;;24.67;14.00;;;;;;;-3.00;100.00;97055.44;10454126;28;20196;-74
2023/01/21 12:40:35;;;;;;;27.83;15.17;;;;;;;-3.07;100.00;97056.56;10452967;28;20236;-74
2023/01/21 12:45:45;;;;;;;27.70;15.13;;;;;;;-3.05;100.00;97049.66;10446727;28;20236;-73
2023/01/21 12:50:51;;;;;;;29.20;14.87;;;;;;;-3.08;100.00;97045.50;10452595;28;20198;-74
2023/01/21 12:56:11;;;;;;;30.50;16.20;;;;;;;-3.04;100.00;97043.63;10453056;28;20288;-73
2023/01/21 13:01:27;;;;;;;33.27;16.13;;;;;;;-3.01;100.00;97028.13;10452165;28;20709;-73
2023/01/21 13:06:37;;;;;;;26.80;14.53;;;;;;;-3.01;100.00;97010.19;10451117;28;20829;-74
2023/01/21 13:11:49;;;;;;;29.47;15.60;;;;;;;-2.95;100.00;97006.53;10452738;28;20696;-74
2023/01/21 13:16:54;;;;;;;25.70;13.63;;;;;;;-2.87;100.00;97004.47;10452304;28;20354;-74
2023/01/21 13:22:05;;;;;;;27.57;14.23;;;;;;;-2.87;100.00;96989.09;10451484;28;20207;-73
2023/01/21 13:27:31;;;;;;;30.20;14.50;;;;;;;-2.85;100.00;96981.31;10433645;28;20266;-75
2023/01/21 13:32:49;;;;;;;29.17;14.23;;;;;;;-2.80;100.00;96977.66;10432097;28;20215;-74
2023/01/21 13:38:12;;;;;;;24.67;13.87;;;;;;;-2.83;100.00;96982.06;10450284;28;20235;-74
2023/01/21 13:43:24;;;;;;;26.07;13.97;;;;;;;-2.76;100.00;96975.78;10451720;28;20249;-74
2023/01/21 13:48:48;;;;;;;24.40;13.67;;;;;;;-2.73;100.00;96979.03;10451799;28;20212;-75
2023/01/21 13:53:57;;;;;;;25.70;13.87;;;;;;;-2.66;100.00;96971.94;10450195;28;20187;-73
2023/01/21 13:59:01;;;;;;;30.13;15.10;;;;;;;-2.62;100.00;96973.47;10450889;28;20203;-75
2023/01/21 14:04:28;;;;;;;27.13;13.67;;;;;;;-2.62;100.00;96970.91;10449847;28;20688;-75
2023/01/21 14:09:33;;;;;;;28.67;14.13;;;;;;;-2.63;100.00;96963.28;10447585;28;20572;-74
2023/01/21 14:14:41;;;;;;;27.67;13.63;;;;;;;-2.68;100.00;96958.31;10449700;28;20192;-75
2023/01/21 14:20:14;;;;;;;27.33;13.10;;;;;;;-2.66;100.00;96953.97;10450461;28;20211;-75
2023/01/21 14:25:42;;;;;;;21.13;11.30;;;;;;;-2.64;100.00;96948.78;10449589;28;20227;-76
2023/01/21 14:30:47;;;;;;;22.40;11.93;;;;;;;-2.71;100.00;96943.94;10449316;28;20283;-76
2023/01/21 14:35:54;;;;;;;20.27;10.90;;;;;;;-2.66;100.00;96940.31;10449158;28;20214;-74
2023/01/21 14:41:07;;;;;;;22.33;10.50;;;;;;;-2.67;100.00;96936.09;10448550;28;20322;-74
2023/01/21 14:46:32;;;;;;;18.93;10.63;;;;;;;-2.65;100.00;96941.97;10450125;28;20314;-75
2023/01/21 14:51:40;;;;;;;17.10;10.00;;;;;;;-2.68;100.00;96948.06;10448864;28;20228;-74
2023/01/21 14:56:51;;;;;;;19.17;10.97;;;;;;;-2.70;100.00;96943.00;10448669;28;20202;-76
2023/01/21 15:02:00;;;;;;;20.27;9.97;;;;;;;-2.66;100.00;96945.44;10432103;28;20700;-76
2023/01/21 15:07:05;;;;;;;17.97;9.23;;;;;;;-2.53;100.00;96942.28;10449483;28;20220;-76
2023/01/21 15:12:13;;;;;;;16.70;9.43;;;;;;;-2.56;100.00;96939.84;10453648;28;20192;-74
2023/01/21 15:17:51;;;;;;;17.43;10.10;;;;;;;-2.62;100.00;96936.72;10457353;28;20192;-76
2023/01/21 15:23:16;;;;;;;20.10;10.03;;;;;;;-2.61;100.00;96943.50;10456802;28;20194;-76
2023/01/21 15:28:48;;;;;;;17.17;9.30;;;;;;;-2.65;100.00;96941.97;10455606;28;20220;-74
2023/01/21 15:33:52;;;;;;;16.57;9.20;;;;;;;-2.66;100.00;96936.03;10456520;28;20275;-76
2023/01/21 15:39:08;;;;;;;16.97;9.00;;;;;;;-2.63;100.00;96935.88;10454880;28;20244;-74
2023/01/21 15:44:32;;;;;;;19.50;10.60;;;;;;;-2.59;100.00;96932.28;10455191;28;20230;-75
2023/01/21 15:49:52;;;;;;;17.47;8.83;;;;;;;-2.47;100.00;96941.13;10455921;28;20206;-74
2023/01/21 15:55:13;;;;;;;15.37;8.93;;;;;;;-2.59;100.00;96937.41;10454460;28;20184;-75
2023/01/21 16:00:29;;;;;;;14.97;8.73;;;;;;;-2.51;100.00;96935.31;10455586;28;20196;-76
2023/01/21 16:05:35;;;;;;;15.70;8.77;;;;;;;-2.46;100.00;96929.16;10453971;28;20214;-73
2023/01/21 16:10:57;;;;;;;16.10;10.20;;;;;;;-2.49;100.00;96937.81;10455328;28;20196;-74
2023/01/21 16:16:10;;;;;;;17.43;10.77;;;;;;;-2.52;100.00;96925.13;10454614;28;20238;-73
2023/01/21 16:21:10;;;;;;;16.77;10.73;;;;;;;-2.45;100.00;96923.97;10453547;28;20198;-75
2023/01/21 16:26:22;;;;;;;13.80;8.20;;;;;;;-2.39;100.00;96920.25;10454305;28;20637;-75
2023/01/21 16:31:22;;;;;;;10.37;7.00;;;;;;;-2.40;100.00;96916.06;10453595;28;20188;-75
2023/01/21 16:36:23;;;;;;;12.07;7.43;;;;;;;-2.36;100.00;96917.56;10452090;28;20196;-75
2023/01/21 16:41:24;;;;;;;10.40;6.60;;;;;;;-2.41;100.00;96910.06;10453772;28;20240;-75
2023/01/21 16:46:25;;;;;;;15.10;9.70;;;;;;;-2.48;100.00;96913.00;10452311;28;20219;-73
2023/01/21 16:51:31;;;;;;;11.73;7.17;;;;;;;-2.38;100.00;96912.50;10453395;28;20286;-72
2023/01/21 16:56:31;;;;;;;11.90;8.07;;;;;;;-2.35;100.00;96911.53;10452164;28;20234;-75
2023/01/21 17:01:31;;;;;;;7.73;5.83;;;;;;;-2.37;100.00;96923.59;10453031;28;20199;-73
2023/01/21 17:06:32;;;;;;;16.30;11.07;;;;;;;-2.41;100.00;96919.50;10451627;28;20702;-75
2023/01/21 17:11:33;;;;;;;10.17;5.90;;;;;;;-2.46;100.00;96929.16;10451300;28;20187;-74
2023/01/21 17:16:35;;;;;;;10.07;6.47;;;;;;;-2.44;100.00;96914.53;10451167;28;20257;-74
2023/01/21 17:21:37;;;;;;;7.93;5.60;;;;;;;-2.41;100.00;96929.78;10451275;28;20192;-74
2023/01/21 17:26:43;;;;;;;5.23;3.83;;;;;;;-2.35;100.00;96924.34;10451879;28;20696;-73
2023/01/21 17:31:44;;;;;;;7.27;5.00;;;;;;;-2.40;100.00;96926.31;10450417;28;20191;-72
2023/01/21 17:36:49;;;;;;;4.03;3.07;;;;;;;-2.30;100.00;96932.66;10451313;28;20249;-75
2023/01/21 17:41:49;;;;;;;6.07;4.23;;;;;;;-2.39;100.00;96927.94;10451479;28;20594;-74
2023/01/21 17:46:52;;;;;;;4.57;3.87;;;;;;;-2.40;100.00;96927.13;10451377;28;20227;-74
2023/01/21 17:51:53;;;;;;;13.23;6.77;;;;;;;-2.44;100.00;96941.00;10450042;28;20644;-74
2023/01/21 17:56:58;;;;;;;15.80;8.97;;;;;;;-2.47;100.00;96936.00;10449513;28;20568;-74
2023/01/21 18:02:00;;;;;;;7.97;5.27;;;;;;;-2.43;100.00;96944.41;10450863;28;20642;-74
2023/01/21 18:07:00;;;;;;;6.37;4.50;;;;;;;-2.30;100.00;96947.22;10449142;28;20247;-74
2023/01/21 18:12:01;;;;;;;6.63;5.20;;;;;;;-2.25;100.00;96945.28;10449696;28;20219;-74
2023/01/21 18:17:03;;;;;;;5.30;4.10;;;;;;;-2.26;100.00;96949.59;10450459;28;20274;-74
2023/01/21 18:22:05;;;;;;;6.77;4.90;;;;;;;-2.26;100.00;96949.59;10450778;28;20200;-73
2023/01/21 18:27:08;;;;;;;7.13;5.33;;;;;;;-2.31;100.00;96948.97;10450255;28;20718;-74
2023/01/21 18:32:13;;;;;;;5.13;3.50;;;;;;;-2.39;100.00;96953.59;10448862;28;20180;-74
2023/01/21 18:37:17;;;;;;;5.80;4.27;;;;;;;-2.44;100.00;96953.81;10450240;28;20188;-75
2023/01/21 18:42:18;;;;;;;6.97;4.30;;;;;;;-2.38;100.00;96955.28;10448917;28;20314;-74
2023/01/21 18:47:19;;;;;;;5.07;4.23;;;;;;;-2.33;100.00;96953.31;10457368;28;20211;-73
2023/01/21 18:52:19;;;;;;;6.83;4.67;;;;;;;-2.28;100.00;96958.25;10458404;28;20203;-74
2023/01/21 18:57:21;;;;;;;5.20;4.07;;;;;;;-2.29;100.00;96954.03;10456530;28;20191;-74
2023/01/21 19:02:21;;;;;;;7.67;4.57;;;;;;;-2.30;100.00;96957.50;10456585;28;20199;-75
2023/01/21 19:07:22;;;;;;;10.53;6.27;;;;;;;-2.39;100.00;96964.72;10457101;28;20647;-74
2023/01/21 19:12:25;;;;;;;4.77;3.90;;;;;;;-2.26;100.00;96959.84;10456189;28;20565;-75
2023/01/21 19:17:28;;;;;;;5.03;4.53;;;;;;;-2.35;100.00;96955.13;10456062;28;20184;-73
2023/01/21 19:22:29;;;;;;;4.87;4.33;;;;;;;-2.36;100.00;96956.88;10455785;28;20230;-75
2023/01/21 19:27:31;;;;;;;6.50;4.23;;;;;;;-2.40;100.00;96954.53;10456641;28;20311;-75
2023/01/21 19:32:31;;;;;;;4.47;3.47;;;;;;;-2.33;100.00;96959.31;10455729;28;20191;-74
2023/01/21 19:37:31;;;;;;;6.33;3.90;;;;;;;-2.33;100.00;96966.16;10456032;28;20183;-74
2023/01/21 19:42:32;;;;;;;15.27;4.90;;;;;;;-2.38;100.00;96973.25;10456176;28;20279;-75
2023/01/21 19:47:33;;;;;;;7.33;5.43;;;;;;;-2.36;100.00;96969.72;10455878;28;20711;-74
2023/01/21 19:52:34;;;;;;;7.67;5.73;;;;;;;-2.29;100.00;96984.81;10456005;28;20192;-74
2023/01/21 19:57:35;;;;;;;8.47;4.03;;;;;;;-2.25;100.00;96994.03;10454960;28;20188;-74
2023/01/21 20:02:35;;;;;;;17.33;9.20;;;;;;;-2.27;100.00;97004.34;10455369;28;20216;-74
2023/01/21 20:07:36;;;;;;;8.00;4.60;;;;;;;-2.28;100.00;96996.72;10455518;28;20299;-74
2023/01/21 20:12:36;;;;;;;11.50;6.50;;;;;;;-2.37;100.00;97006.53;10453729;28;20203;-74
2023/01/21 20:17:37;;;;;;;10.60;5.93;;;;;;;-2.32;100.00;97011.44;10454943;28;20196;-74
2023/01/21 20:22:38;;;;;;;13.83;7.03;;;;;;;-2.35;100.00;97024.41;10454774;28;20822;-73
2023/01/21 20:27:38;;;;;;;11.93;6.90;;;;;;;-2.47;100.00;97024.97;10454185;28;20219;-74
2023/01/21 20:32:38;;;;;;;7.20;5.00;;;;;;;-2.43;100.00;97035.03;10454496;28;20283;-74
2023/01/21 20:37:39;;;;;;;9.57;5.87;;;;;;;-2.33;100.00;97038.84;10453688;28;20204;-72
2023/01/21 20:42:40;;;;;;;11.50;6.97;;;;;;;-2.37;100.00;97039.88;10453620;28;20292;-72
2023/01/21 20:47:42;;;;;;;10.03;6.90;;;;;;;-2.36;100.00;97046.69;10453716;28;20292;-72
2023/01/21 20:52:43;;;;;;;11.50;6.47;;;;;;;-2.42;100.00;97046.09;10452499;28;20237;-75
2023/01/21 20:57:44;;;;;;;8.50;7.03;;;;;;;-2.45;100.00;97048.81;10453025;28;20186;-74
2023/01/21 21:02:45;;;;;;;8.87;7.33;;;;;;;-2.43;100.00;97057.28;10452418;28;20191;-75
2023/01/21 21:07:45;;;;;;;8.90;6.53;;;;;;;-2.40;100.00;97068.22;10450562;28;20243;-72
2023/01/21 21:12:46;;;;;;;9.83;7.30;;;;;;;-2.38;100.00;97073.28;10452760;28;20663;-74
2023/01/21 21:17:46;;;;;;;11.23;7.43;;;;;;;-2.35;100.00;97079.13;10450408;28;20683;-75
2023/01/21 21:22:47;;;;;;;9.13;7.23;;;;;;;-2.36;100.00;97080.03;10451973;28;20211;-74
2023/01/21 21:27:47;;;;;;;9.90;7.47;;;;;;;-2.26;100.00;97088.16;10452472;28;20219;-74
2023/01/21 21:32:48;;;;;;;13.50;6.43;;;;;;;-2.32;100.00;97090.97;10452060;28;20203;-74
2023/01/21 21:37:49;;;;;;;9.03;6.93;;;;;;;-2.39;100.00;97087.00;10451770;28;20258;-75
2023/01/21 21:48:38;;;;;;;9.73;4.83;;;;;;;-2.33;100.00;97089.31;10451664;28;20231;-73
2023/01/21 21:53:39;;;;;;;7.97;5.53;;;;;;;-2.34;100.00;97091.06;10450092;28;20192;-74
2023/01/21 21:58:39;;;;;;;7.33;4.63;;;;;;;-2.30;100.00;97099.44;10451464;28;20294;-73
2023/01/21 22:03:40;;;;;;;5.83;4.63;;;;;;;-2.28;100.00;97102.78;10450803;28;20723;-72
2023/01/21 22:08:41;;;;;;;7.40;4.80;;;;;;;-2.38;100.00;97109.22;10449559;28;20224;-72
2023/01/21 22:13:42;;;;;;;8.57;5.97;;;;;;;-2.29;100.00;97100.28;10451068;28;20196;-73
2023/01/21 22:18:43;;;;;;;8.63;6.10;;;;;;;-2.38;100.00;97098.94;10454243;28;20662;-75
2023/01/21 22:23:43;;;;;;;7.60;5.60;;;;;;;-2.23;100.00;97098.28;10464717;28;20249;-75
2023/01/21 22:28:44;;;;;;;9.87;6.23;;;;;;;-2.30;100.00;97107.13;10463923;28;20621;-75
2023/01/21 22:33:45;;;;;;;8.77;6.17;;;;;;;-2.31;100.00;97104.63;10480225;28;20184;-73
2023/01/21 22:38:46;;;;;;;8.63;6.80;;;;;;;-2.40;100.00;97114.41;10463565;28;20634;-74
2023/01/21 22:43:47;;;;;;;11.33;7.70;;;;;;;-2.33;100.00;97122.66;10464445;28;20813;-74
2023/01/21 22:48:48;;;;;;;8.63;6.90;;;;;;;-2.33;100.00;97122.66;10464148;28;20219;-74
2023/01/21 22:53:49;;;;;;;11.33;7.00;;;;;;;-2.25;100.00;97122.31;10463681;28;20549;-74
2023/01/21 22:58:49;;;;;;;9.13;6.63;;;;;;;-2.33;100.00;97127.78;10463002;28;20192;-74
2023/01/21 23:03:50;;;;;;;9.80;7.03;;;;;;;-2.45;100.00;97123.19;10462846;28;20201;-73